LFST 250330Z AUTO 27001KT CAVOK 14/13 Q1018 TEMPO 1000 BCFG

TAF TAF LFST 241700Z 2418/2518 VRB03KT CAVOK PROB40 TEMPO 2503/2507 4000 BR PROB30 TEMPO 2503/2506 1000 BCFG TEMPO 2509/2514 FEW030 PROB40 TEMPO 2515/2518 15006KT

 

Temperature in degrees Celsius: 14
Dew Point Temperature in degrees Celsius: 13

 

http://openflyers.com/case/icingChart.php?chart=2&temperature=14&dewPoint=13